createdAt,value
2022-07-30T00:00:46.240Z,20.63
2022-07-30T00:04:49.384Z,20.62
2022-07-30T00:09:09.697Z,20.70
2022-07-30T00:13:14.356Z,20.80
2022-07-30T00:17:16.952Z,20.88
2022-07-30T00:21:36.336Z,20.93
2022-07-30T00:25:41.047Z,20.72
2022-07-30T00:29:44.817Z,20.64
2022-07-30T00:33:47.248Z,20.53
2022-07-30T00:37:49.341Z,20.37
2022-07-30T00:41:56.311Z,20.30
2022-07-30T00:46:16.701Z,20.37
2022-07-30T00:50:18.847Z,20.44
2022-07-30T00:54:21.565Z,20.50
2022-07-30T00:58:28.257Z,20.63
2022-07-30T01:02:30.495Z,20.62
2022-07-30T01:06:32.695Z,20.51
2022-07-30T01:10:35.298Z,20.34
2022-07-30T01:14:39.658Z,20.19
2022-07-30T01:19:26.742Z,20.08
2022-07-30T01:23:38.414Z,19.99
2022-07-30T01:28:04.908Z,19.83
2022-07-30T01:32:09.056Z,19.83
2022-07-30T01:36:14.670Z,20.01
2022-07-30T01:40:17.000Z,19.99
2022-07-30T01:44:23.935Z,19.87
2022-07-30T01:48:29.090Z,19.76
2022-07-30T01:52:33.734Z,19.58
2022-07-30T01:56:37.719Z,19.72
2022-07-30T02:00:43.741Z,19.87
2022-07-30T02:04:46.840Z,20.00
2022-07-30T02:08:54.654Z,19.92
2022-07-30T02:13:04.970Z,19.95
2022-07-30T02:17:21.296Z,19.88
2022-07-30T02:21:39.878Z,19.85
2022-07-30T02:25:52.859Z,19.81
2022-07-30T02:30:00.567Z,19.73
2022-07-30T02:34:06.753Z,19.78
2022-07-30T02:38:12.270Z,19.85
2022-07-30T02:42:16.296Z,19.90
2022-07-30T02:46:19.938Z,19.76
2022-07-30T02:50:45.878Z,19.69
2022-07-30T02:54:50.360Z,19.62
2022-07-30T02:58:54.228Z,19.44
2022-07-30T03:02:57.225Z,19.49
2022-07-30T03:07:04.876Z,19.52
2022-07-30T03:11:11.848Z,19.65
2022-07-30T03:15:17.388Z,19.67
2022-07-30T03:19:24.118Z,19.67
2022-07-30T03:23:28.236Z,19.75
2022-07-30T03:27:33.033Z,19.68
2022-07-30T03:31:37.946Z,19.58
2022-07-30T03:35:42.863Z,19.49
2022-07-30T03:39:47.912Z,19.26
2022-07-30T03:43:51.004Z,19.18
2022-07-30T03:47:55.703Z,19.14
2022-07-30T03:51:59.262Z,19.09
2022-07-30T03:56:02.702Z,19.08
2022-07-30T04:00:30.257Z,19.09
2022-07-30T04:04:32.539Z,19.16
2022-07-30T04:08:34.822Z,19.31
2022-07-30T04:12:38.251Z,19.43
2022-07-30T04:17:49.437Z,19.54
2022-07-30T04:21:27.066Z,19.61
2022-07-30T04:25:30.865Z,19.55
2022-07-30T04:29:33.383Z,19.68
2022-07-30T04:33:35.602Z,19.68
2022-07-30T04:37:43.398Z,19.73
2022-07-30T04:41:48.773Z,19.81
2022-07-30T04:46:12.029Z,19.92
2022-07-30T04:50:16.458Z,19.71
2022-07-30T04:54:22.770Z,19.52
2022-07-30T04:58:30.145Z,19.56
2022-07-30T05:02:35.288Z,19.64
2022-07-30T05:06:39.716Z,19.80
2022-07-30T05:10:43.398Z,19.76
2022-07-30T05:14:49.784Z,19.83
2022-07-30T05:18:52.873Z,20.02
2022-07-30T05:22:54.974Z,20.34
2022-07-30T05:26:58.412Z,20.53
2022-07-30T05:31:26.702Z,20.90
2022-07-30T05:40:19.497Z,21.50
2022-07-30T05:45:01.279Z,21.75
2022-07-30T05:49:03.841Z,21.77
2022-07-30T05:53:06.043Z,21.85
2022-07-30T05:57:27.073Z,21.74
2022-07-30T06:01:29.211Z,21.82
2022-07-30T06:05:34.888Z,22.09
2022-07-30T06:09:37.499Z,22.03
2022-07-30T06:13:41.621Z,22.00
2022-07-30T06:17:54.627Z,22.22
2022-07-30T06:22:26.150Z,22.37
2022-07-30T06:26:30.809Z,22.67
2022-07-30T06:30:33.334Z,22.97
2022-07-30T06:34:47.319Z,23.25
2022-07-30T06:38:49.596Z,23.66
2022-07-30T06:42:58.943Z,23.91
2022-07-30T06:47:26.357Z,24.02
2022-07-30T06:51:28.362Z,24.12
2022-07-30T06:55:30.474Z,24.24
2022-07-30T06:59:56.150Z,24.38
2022-07-30T07:04:07.987Z,24.51
2022-07-30T07:08:13.014Z,24.63
2022-07-30T07:12:20.731Z,24.79
2022-07-30T07:16:25.700Z,24.95
2022-07-30T07:20:30.792Z,25.09
2022-07-30T07:24:38.107Z,25.19
2022-07-30T07:28:43.819Z,25.33
2022-07-30T07:32:45.988Z,25.42
2022-07-30T07:36:49.904Z,25.58
2022-07-30T07:40:53.325Z,25.69
2022-07-30T07:44:55.458Z,25.76
2022-07-30T07:48:58.163Z,25.95
2022-07-30T07:53:06.593Z,26.08
2022-07-30T07:57:10.350Z,26.19
2022-07-30T08:01:16.909Z,26.26
2022-07-30T08:06:00.824Z,26.27
2022-07-30T08:10:19.854Z,26.37
2022-07-30T08:14:51.956Z,26.25
2022-07-30T08:19:18.526Z,26.26
2022-07-30T08:23:29.954Z,26.52
2022-07-30T08:27:32.343Z,26.86
2022-07-30T08:31:35.061Z,27.19
2022-07-30T08:35:38.632Z,27.49
2022-07-30T08:39:51.753Z,27.59
2022-07-30T08:43:55.579Z,27.70
2022-07-30T08:48:01.171Z,27.42
2022-07-30T08:52:13.158Z,27.51
2022-07-30T08:56:23.732Z,27.62
2022-07-30T09:00:25.833Z,27.60
2022-07-30T09:04:27.999Z,27.64
2022-07-30T09:08:31.597Z,28.12
2022-07-30T09:12:45.222Z,28.52
2022-07-30T09:16:57.626Z,28.82
2022-07-30T09:21:01.960Z,28.72
2022-07-30T09:25:04.209Z,29.00
2022-07-30T09:29:41.603Z,29.35
2022-07-30T09:34:02.711Z,29.50
2022-07-30T09:38:43.614Z,29.76
2022-07-30T09:43:25.935Z,30.15
2022-07-30T09:47:38.549Z,30.14
2022-07-30T09:51:54.413Z,29.87
2022-07-30T09:56:24.970Z,28.61
2022-07-30T10:00:30.161Z,28.18
2022-07-30T10:04:48.336Z,28.05
2022-07-30T10:08:52.410Z,28.04
2022-07-30T10:13:01.149Z,28.20
2022-07-30T10:17:06.711Z,28.33
2022-07-30T10:21:36.844Z,28.33
2022-07-30T10:26:03.752Z,28.56
2022-07-30T10:30:32.706Z,28.83
2022-07-30T10:34:42.377Z,28.99
2022-07-30T10:38:55.210Z,29.13
2022-07-30T10:43:31.854Z,29.35
2022-07-30T10:47:40.201Z,29.48
2022-07-30T10:51:55.051Z,29.64
2022-07-30T10:56:25.469Z,29.82
2022-07-30T11:00:31.478Z,29.93
2022-07-30T11:04:34.046Z,30.12
2022-07-30T11:08:42.693Z,30.27
2022-07-30T11:12:47.211Z,30.37
2022-07-30T11:16:55.148Z,30.53
2022-07-30T11:21:16.198Z,30.72
2022-07-30T11:25:50.739Z,30.91
2022-07-30T11:29:57.349Z,31.07
2022-07-30T11:34:26.061Z,31.17
2022-07-30T11:38:51.370Z,31.38
2022-07-30T11:43:18.264Z,30.88
2022-07-30T11:47:20.751Z,31.22
2022-07-30T11:51:23.248Z,31.20
2022-07-30T11:55:35.881Z,31.37
2022-07-30T11:59:58.478Z,31.41
2022-07-30T12:04:05.446Z,31.56
2022-07-30T12:08:08.359Z,31.38
2022-07-30T12:12:24.313Z,31.52
2022-07-30T12:16:31.402Z,31.69
2022-07-30T12:20:36.158Z,31.69
2022-07-30T12:24:40.922Z,31.65
2022-07-30T12:28:44.552Z,31.99
2022-07-30T12:32:48.202Z,32.14
2022-07-30T12:36:50.723Z,32.30
2022-07-30T12:41:05.025Z,32.30
2022-07-30T12:45:25.360Z,32.34
2022-07-30T12:49:37.581Z,32.17
2022-07-30T12:53:55.518Z,32.36
2022-07-30T12:58:08.949Z,32.46
2022-07-30T13:06:31.238Z,32.66
2022-07-30T13:10:33.857Z,32.56
2022-07-30T13:14:36.134Z,31.92
2022-07-30T13:19:05.291Z,32.48
2022-07-30T13:23:07.692Z,32.74
2022-07-30T13:27:30.500Z,33.07
2022-07-30T13:31:42.996Z,33.03
2022-07-30T13:35:46.097Z,33.39
2022-07-30T13:39:48.252Z,33.46
2022-07-30T13:43:50.636Z,33.40
2022-07-30T13:47:52.666Z,33.53
2022-07-30T13:51:54.837Z,33.39
2022-07-30T13:55:59.471Z,33.83
2022-07-30T14:00:02.068Z,33.99
2022-07-30T14:04:06.521Z,34.06
2022-07-30T14:08:10.513Z,33.85
2022-07-30T14:12:12.925Z,34.33
2022-07-30T14:16:42.377Z,34.71
2022-07-30T14:20:40.492Z,34.61
2022-07-30T14:24:45.668Z,34.56
2022-07-30T14:28:49.727Z,34.01
2022-07-30T14:32:58.264Z,33.81
2022-07-30T14:37:04.185Z,33.99
2022-07-30T14:41:08.943Z,34.09
2022-07-30T14:45:11.234Z,33.88
2022-07-30T14:49:15.737Z,33.36
2022-07-30T14:53:21.914Z,32.71
2022-07-30T14:57:24.535Z,33.35
2022-07-30T15:01:26.722Z,32.98
2022-07-30T15:05:28.814Z,32.48
2022-07-30T15:09:34.019Z,32.04
2022-07-30T15:13:41.114Z,31.64
2022-07-30T15:17:52.172Z,31.73
2022-07-30T15:21:54.320Z,31.17
2022-07-30T15:25:57.411Z,31.17
2022-07-30T15:29:59.567Z,30.83
2022-07-30T15:34:01.618Z,30.88
2022-07-30T15:38:04.144Z,31.08
2022-07-30T15:42:06.815Z,31.95
2022-07-30T15:46:08.939Z,32.99
2022-07-30T15:50:10.977Z,32.69
2022-07-30T15:54:14.131Z,32.53
2022-07-30T15:58:17.901Z,31.81
2022-07-30T16:02:20.002Z,32.05
2022-07-30T16:06:22.082Z,33.07
2022-07-30T16:10:24.270Z,31.58
2022-07-30T16:14:27.284Z,30.66
2022-07-30T16:18:29.393Z,30.09
2022-07-30T16:22:31.422Z,29.85
2022-07-30T16:26:35.885Z,29.61
2022-07-30T16:30:51.063Z,29.38
2022-07-30T16:34:53.665Z,29.26
2022-07-30T16:38:55.885Z,29.21
2022-07-30T16:42:58.005Z,29.12
2022-07-30T16:47:00.866Z,29.07
2022-07-30T16:51:03.922Z,29.16
2022-07-30T16:55:06.948Z,29.20
2022-07-30T16:59:13.681Z,29.38
2022-07-30T17:03:19.849Z,30.16
2022-07-30T17:07:22.251Z,32.36
2022-07-30T17:11:46.585Z,33.41
2022-07-30T17:15:47.120Z,34.08
2022-07-30T17:19:49.262Z,34.49
2022-07-30T17:23:51.669Z,34.78
2022-07-30T17:27:55.260Z,34.67
2022-07-30T17:31:57.200Z,34.95
2022-07-30T17:35:59.185Z,34.52
2022-07-30T17:40:29.867Z,34.16
2022-07-30T17:44:23.919Z,33.15
2022-07-30T17:48:26.212Z,33.16
2022-07-30T17:52:28.224Z,32.52
2022-07-30T17:56:30.336Z,31.23
2022-07-30T18:00:34.720Z,31.84
2022-07-30T18:04:39.613Z,31.85
2022-07-30T18:08:41.954Z,31.51
2022-07-30T18:12:48.506Z,31.27
2022-07-30T18:16:52.277Z,30.53
2022-07-30T18:20:54.261Z,29.86
2022-07-30T18:24:56.675Z,29.50
2022-07-30T18:28:59.026Z,28.80
2022-07-30T18:33:01.713Z,28.27
2022-07-30T18:37:03.959Z,27.92
2022-07-30T18:41:06.016Z,27.57
2022-07-30T18:45:09.119Z,27.24
2022-07-30T18:49:35.157Z,26.99
2022-07-30T18:53:37.357Z,26.82
2022-07-30T18:57:41.253Z,26.72
2022-07-30T19:01:43.911Z,26.60
2022-07-30T19:05:46.016Z,26.51
2022-07-30T19:09:50.501Z,26.43
2022-07-30T19:13:52.485Z,26.33
2022-07-30T19:17:54.532Z,26.27
2022-07-30T19:21:56.998Z,26.23
2022-07-30T19:25:59.127Z,26.14
2022-07-30T19:30:01.204Z,26.10
2022-07-30T19:34:07.110Z,26.05
2022-07-30T19:38:09.958Z,26.02
2022-07-30T19:42:16.533Z,25.94
2022-07-30T19:46:20.755Z,25.86
2022-07-30T19:50:27.307Z,25.78
2022-07-30T19:54:29.668Z,25.71
2022-07-30T19:58:32.450Z,25.66
2022-07-30T20:02:35.759Z,25.70
2022-07-30T20:06:39.926Z,25.59
2022-07-30T20:10:48.418Z,25.47
2022-07-30T20:14:50.488Z,25.43
2022-07-30T20:18:52.569Z,25.29
2022-07-30T20:22:54.539Z,25.18
2022-07-30T20:26:57.694Z,25.07
2022-07-30T20:31:00.682Z,24.96
2022-07-30T20:35:02.749Z,24.84
2022-07-30T20:39:05.394Z,24.71
2022-07-30T20:43:07.356Z,24.45
2022-07-30T20:47:11.254Z,24.33
2022-07-30T20:51:13.541Z,24.32
2022-07-30T20:59:44.018Z,23.96
2022-07-30T21:03:47.757Z,23.83
2022-07-30T21:07:53.061Z,23.51
2022-07-30T21:11:55.818Z,23.31
2022-07-30T21:16:01.562Z,23.32
2022-07-30T21:20:07.925Z,23.36
2022-07-30T21:24:15.373Z,23.29
2022-07-30T21:28:27.622Z,23.22
2022-07-30T21:32:29.958Z,22.80
2022-07-30T21:36:32.272Z,22.92
2022-07-30T21:40:38.062Z,22.91
2022-07-30T21:44:40.119Z,22.89
2022-07-30T21:48:45.923Z,22.53
2022-07-30T21:52:48.187Z,22.27
2022-07-30T21:56:50.190Z,21.95
2022-07-30T22:00:52.130Z,22.00
2022-07-30T22:04:54.337Z,21.94
2022-07-30T22:08:56.327Z,21.91
2022-07-30T22:12:58.446Z,21.82
2022-07-30T22:17:00.696Z,21.73
2022-07-30T22:21:07.012Z,21.62
2022-07-30T22:25:10.740Z,21.58
2022-07-30T22:29:13.367Z,21.54
2022-07-30T22:33:19.987Z,21.42
2022-07-30T22:37:23.682Z,21.37
2022-07-30T22:41:34.889Z,21.08
2022-07-30T22:45:48.931Z,21.11
2022-07-30T22:49:53.173Z,21.20
2022-07-30T22:54:11.982Z,21.16
2022-07-30T22:58:15.288Z,21.05
2022-07-30T23:02:20.098Z,20.97
2022-07-30T23:06:25.585Z,20.82
2022-07-30T23:10:28.713Z,20.50
2022-07-30T23:12:26.420Z,24.27
2022-07-30T23:14:31.204Z,20.48
2022-07-30T23:18:35.184Z,20.46
2022-07-30T23:22:37.564Z,20.35
2022-07-30T23:26:39.666Z,20.26
2022-07-30T23:30:41.700Z,20.18
2022-07-30T23:34:43.767Z,20.12
2022-07-30T23:38:46.282Z,20.00
2022-07-30T23:42:50.222Z,19.66
2022-07-30T23:46:52.313Z,19.78
2022-07-30T23:50:54.580Z,19.81
2022-07-30T23:54:56.691Z,19.83
2022-07-30T23:59:01.345Z,19.78
